Coivaras, Brazil
Current Conditions -  °F | °C
As of 12:00 PM on Monday 24 Nov 2014 (Local Time) from SBTE Reporting Station
Few Clouds Few Clouds  
Wind Chill: 95°   Ceiling: Unl
Heat Index: 95°   Visibility: 6mi
Dew Point: 59°   Wind: 7mph
Humidity: 30%   Direction: 100°E
Pressure: 29.85"   Gusts: NA
Location:  5.09°S, 42.2°W
Report Text: SBTE 241500Z 10006KT 9999 FEW040 35/15 Q1011
Loading
Personal Weather Stations






























Interactive Weather Map New forecast layout! Learn more

10-Day Weather Forecast

Advertisements
Track Severe Weather on mobile